METAR Data
IDs: Format: Raw Decoded Include TAF

Data at: 2234 UTC 30 Jun 2022

METAR for:KBCT (Boca Raton Arpt, FL, US)
Text:KBCT 302153Z 14010G15KT 10SM SCT025 32/24 A3008
Temperature: 32.0°C ( 90°F)
Dewpoint: 24.0°C ( 75°F) [RH = 63%]
Pressure (altimeter):30.08 inches Hg (1018.7 mb)
Winds:from the SE (140 degrees) at 12 MPH (10 knots; 5.1 m/s) gusting to 17 MPH (15 knots; 7.7 m/s)
Visibility:10 or more sm (16+ km)
Ceiling:at least 12,000 feet AGL
Clouds: scattered clouds at 2500 feet AGL
Text:KBCT 302053Z 14010G15KT 10SM SCT025 33/24 A3009
Temperature: 33.0°C ( 91°F)
Dewpoint: 24.0°C ( 75°F) [RH = 59%]
Pressure (altimeter):30.09 inches Hg (1019.0 mb)
Winds:from the SE (140 degrees) at 12 MPH (10 knots; 5.1 m/s) gusting to 17 MPH (15 knots; 7.7 m/s)
Visibility:10 or more sm (16+ km)
Ceiling:at least 12,000 feet AGL
Clouds: scattered clouds at 2500 feet AGL
Text:KBCT 301953Z 14007G15KT 10SM SCT020 33/24 A3009 RMK VCTS
Temperature: 33.0°C ( 91°F)
Dewpoint: 24.0°C ( 75°F) [RH = 59%]
Pressure (altimeter):30.09 inches Hg (1019.0 mb)
Winds:from the SE (140 degrees) at 8 MPH (7 knots; 3.6 m/s) gusting to 17 MPH (15 knots; 7.7 m/s)
Visibility:10 or more sm (16+ km)
Ceiling:at least 12,000 feet AGL
Clouds: scattered clouds at 2000 feet AGL
Text:KBCT 301853Z 14007G15KT 100V180 10SM SCT025 32/24 A3010 RMK VCTS
Temperature: 32.0°C ( 90°F)
Dewpoint: 24.0°C ( 75°F) [RH = 63%]
Pressure (altimeter):30.10 inches Hg (1019.4 mb)
Winds:from the SE (140 degrees) at 8 MPH (7 knots; 3.6 m/s) gusting to 17 MPH (15 knots; 7.7 m/s)
Visibility:10 or more sm (16+ km)
Ceiling:at least 12,000 feet AGL
Clouds: scattered clouds at 2500 feet AGL
Text:KBCT 301753Z 14010G15KT 10SM SCT030 31/24 A3012 RMK VCTS
Temperature: 31.0°C ( 88°F)
Dewpoint: 24.0°C ( 75°F) [RH = 66%]
Pressure (altimeter):30.12 inches Hg (1020.1 mb)
Winds:from the SE (140 degrees) at 12 MPH (10 knots; 5.1 m/s) gusting to 17 MPH (15 knots; 7.7 m/s)
Visibility:10 or more sm (16+ km)
Ceiling:at least 12,000 feet AGL
Clouds: scattered clouds at 3000 feet AGL
Text:KBCT 301653Z 14010KT 10SM SCT030 32/24 A3013 RMK VCTS
Temperature: 32.0°C ( 90°F)
Dewpoint: 24.0°C ( 75°F) [RH = 63%]
Pressure (altimeter):30.13 inches Hg (1020.4 mb)
Winds:from the SE (140 degrees) at 12 MPH (10 knots; 5.1 m/s)
Visibility:10 or more sm (16+ km)
Ceiling:at least 12,000 feet AGL
Clouds: scattered clouds at 3000 feet AGL
Text:KBCT 301553Z 13008KT 120V210 10SM SCT025 33/24 A3013 RMK VCTS
Temperature: 33.0°C ( 91°F)
Dewpoint: 24.0°C ( 75°F) [RH = 59%]
Pressure (altimeter):30.13 inches Hg (1020.4 mb)
Winds:from the SE (130 degrees) at 9 MPH (8 knots; 4.1 m/s)
Visibility:10 or more sm (16+ km)
Ceiling:at least 12,000 feet AGL
Clouds: scattered clouds at 2500 feet AGL
Text:KBCT 301453Z VRB04KT 10SM SCT025 33/24 A3014
Temperature: 33.0°C ( 91°F)
Dewpoint: 24.0°C ( 75°F) [RH = 59%]
Pressure (altimeter):30.14 inches Hg (1020.7 mb)
Winds:variable direction winds at 5 MPH (4 knots; 2.1 m/s)
Visibility:10 or more sm (16+ km)
Ceiling:at least 12,000 feet AGL
Clouds: scattered clouds at 2500 feet AGL
Text:KBCT 301353Z VRB04KT 10SM SCT025 32/24 A3014
Temperature: 32.0°C ( 90°F)
Dewpoint: 24.0°C ( 75°F) [RH = 63%]
Pressure (altimeter):30.14 inches Hg (1020.7 mb)
Winds:variable direction winds at 5 MPH (4 knots; 2.1 m/s)
Visibility:10 or more sm (16+ km)
Ceiling:at least 12,000 feet AGL
Clouds: scattered clouds at 2500 feet AGL
Text:KBCT 301253Z VRB04KT 10SM SCT025 31/24 A3013
Temperature: 31.0°C ( 88°F)
Dewpoint: 24.0°C ( 75°F) [RH = 66%]
Pressure (altimeter):30.13 inches Hg (1020.4 mb)
Winds:variable direction winds at 5 MPH (4 knots; 2.1 m/s)
Visibility:10 or more sm (16+ km)
Ceiling:at least 12,000 feet AGL
Clouds: scattered clouds at 2500 feet AGL
Text:KBCT 301153Z 00000KT 10SM FEW020 25/24 A3012
Temperature: 25.0°C ( 77°F)
Dewpoint: 24.0°C ( 75°F) [RH = 94%]
Pressure (altimeter):30.12 inches Hg (1020.1 mb)
Winds:calm
Visibility:10 or more sm (16+ km)
Ceiling:at least 12,000 feet AGL
Clouds: few clouds at 2000 feet AGL
Text:KBCT 301053Z 00000KT 10SM FEW020 25/24 A3011
Temperature: 25.0°C ( 77°F)
Dewpoint: 24.0°C ( 75°F) [RH = 94%]
Pressure (altimeter):30.11 inches Hg (1019.7 mb)
Winds:calm
Visibility:10 or more sm (16+ km)
Ceiling:at least 12,000 feet AGL
Clouds: few clouds at 2000 feet AGL
Text:KBCT 300253Z 17005KT 10SM CLR 28/24 A3017
Temperature: 28.0°C ( 82°F)
Dewpoint: 24.0°C ( 75°F) [RH = 79%]
Pressure (altimeter):30.17 inches Hg (1021.8 mb)
Winds:from the S (170 degrees) at 6 MPH (5 knots; 2.6 m/s)
Visibility:10 or more sm (16+ km)
Ceiling:at least 12,000 feet AGL
Clouds:sky clear below 12,000 feet AGL
Text:KBCT 300153Z 14004KT 10SM CLR 28/24 A3015
Temperature: 28.0°C ( 82°F)
Dewpoint: 24.0°C ( 75°F) [RH = 79%]
Pressure (altimeter):30.15 inches Hg (1021.1 mb)
Winds:from the SE (140 degrees) at 5 MPH (4 knots; 2.1 m/s)
Visibility:10 or more sm (16+ km)
Ceiling:at least 12,000 feet AGL
Clouds:sky clear below 12,000 feet AGL
Text:KBCT 300053Z 14006KT 10SM CLR 28/24 A3013
Temperature: 28.0°C ( 82°F)
Dewpoint: 24.0°C ( 75°F) [RH = 79%]
Pressure (altimeter):30.13 inches Hg (1020.4 mb)
Winds:from the SE (140 degrees) at 7 MPH (6 knots; 3.1 m/s)
Visibility:10 or more sm (16+ km)
Ceiling:at least 12,000 feet AGL
Clouds:sky clear below 12,000 feet AGL
Text:KBCT 292353Z 13005KT 10SM FEW020 29/24 A3011
Temperature: 29.0°C ( 84°F)
Dewpoint: 24.0°C ( 75°F) [RH = 74%]
Pressure (altimeter):30.11 inches Hg (1019.7 mb)
Winds:from the SE (130 degrees) at 6 MPH (5 knots; 2.6 m/s)
Visibility:10 or more sm (16+ km)
Ceiling:at least 12,000 feet AGL
Clouds: few clouds at 2000 feet AGL
Text:KBCT 292253Z 12008KT 100V170 10SM SCT020 30/24 A3012
Temperature: 30.0°C ( 86°F)
Dewpoint: 24.0°C ( 75°F) [RH = 70%]
Pressure (altimeter):30.12 inches Hg (1020.1 mb)
Winds:from the ESE (120 degrees) at 9 MPH (8 knots; 4.1 m/s)
Visibility:10 or more sm (16+ km)
Ceiling:at least 12,000 feet AGL
Clouds: scattered clouds at 2000 feet AGL
Text:KBCT 292153Z 12008KT 100V170 10SM VCTS SCT025 29/24 A3012 RMK LTG DSNT NE AND SW AND W.
Temperature: 29.0°C ( 84°F)
Dewpoint: 24.0°C ( 75°F) [RH = 74%]
Pressure (altimeter):30.12 inches Hg (1020.1 mb)
Winds:from the ESE (120 degrees) at 9 MPH (8 knots; 4.1 m/s)
Visibility:10 or more sm (16+ km)
Ceiling:at least 12,000 feet AGL
Clouds: scattered clouds at 2500 feet AGL
Weather:VCTS (thunderstorm in vicinity)
Text:KBCT 292053Z 14008KT 100V170 10SM VCTS SCT050 33/24 A3012 RMK LTG DSNT NE AND SE AND SW.
Temperature: 33.0°C ( 91°F)
Dewpoint: 24.0°C ( 75°F) [RH = 59%]
Pressure (altimeter):30.12 inches Hg (1020.1 mb)
Winds:from the SE (140 degrees) at 9 MPH (8 knots; 4.1 m/s)
Visibility:10 or more sm (16+ km)
Ceiling:at least 12,000 feet AGL
Clouds: scattered clouds at 5000 feet AGL
Weather:VCTS (thunderstorm in vicinity)
Text:KBCT 291953Z 12006KT 100V170 10SM VCTS BKN050 32/24 A3012 RMK LTG DSNT SE-SW.
Temperature: 32.0°C ( 90°F)
Dewpoint: 24.0°C ( 75°F) [RH = 63%]
Pressure (altimeter):30.12 inches Hg (1020.1 mb)
Winds:from the ESE (120 degrees) at 7 MPH (6 knots; 3.1 m/s)
Visibility:10 or more sm (16+ km)
Ceiling:5000 feet AGL
Clouds: broken clouds at 5000 feet AGL
Weather:VCTS (thunderstorm in vicinity)
Text:KBCT 291853Z VRB05KT 10SM BKN050 30/23 A3014
Temperature: 30.0°C ( 86°F)
Dewpoint: 23.0°C ( 73°F) [RH = 66%]
Pressure (altimeter):30.14 inches Hg (1020.7 mb)
Winds:variable direction winds at 6 MPH (5 knots; 2.6 m/s)
Visibility:10 or more sm (16+ km)
Ceiling:5000 feet AGL
Clouds: broken clouds at 5000 feet AGL
Text:KBCT 291753Z 13008KT 10SM SCT040 BKN050 29/23 A3014
Temperature: 29.0°C ( 84°F)
Dewpoint: 23.0°C ( 73°F) [RH = 70%]
Pressure (altimeter):30.14 inches Hg (1020.7 mb)
Winds:from the SE (130 degrees) at 9 MPH (8 knots; 4.1 m/s)
Visibility:10 or more sm (16+ km)
Ceiling:5000 feet AGL
Clouds: scattered clouds at 4000 feet AGL, broken clouds at 5000 feet AGL
Text:KBCT 291653Z 13008KT 10SM SCT040 30/23 A3016
Temperature: 30.0°C ( 86°F)
Dewpoint: 23.0°C ( 73°F) [RH = 66%]
Pressure (altimeter):30.16 inches Hg (1021.4 mb)
Winds:from the SE (130 degrees) at 9 MPH (8 knots; 4.1 m/s)
Visibility:10 or more sm (16+ km)
Ceiling:at least 12,000 feet AGL
Clouds: scattered clouds at 4000 feet AGL
Text:KBCT 291553Z VRB005KT 10SM SCT030 34/23 A3014
Temperature: 34.0°C ( 93°F)
Dewpoint: 23.0°C ( 73°F) [RH = 53%]
Pressure (altimeter):30.14 inches Hg (1020.7 mb)
Winds:variable direction winds at 6 MPH (5 knots; 2.6 m/s)
Visibility:10 or more sm (16+ km)
Ceiling:at least 12,000 feet AGL
Clouds: scattered clouds at 3000 feet AGL
Text:KBCT 291453Z VRB005KT 10SM FEW030 32/22 A3014
Temperature: 32.0°C ( 90°F)
Dewpoint: 22.0°C ( 72°F) [RH = 56%]
Pressure (altimeter):30.14 inches Hg (1020.7 mb)
Winds:variable direction winds at 6 MPH (5 knots; 2.6 m/s)
Visibility:10 or more sm (16+ km)
Ceiling:at least 12,000 feet AGL
Clouds: few clouds at 3000 feet AGL
Text:KBCT 291253Z 03003KT 10SM FEW030 29/23 A3014
Temperature: 29.0°C ( 84°F)
Dewpoint: 23.0°C ( 73°F) [RH = 70%]
Pressure (altimeter):30.14 inches Hg (1020.7 mb)
Winds:from the NNE (30 degrees) at 3 MPH (3 knots; 1.5 m/s)
Visibility:10 or more sm (16+ km)
Ceiling:at least 12,000 feet AGL
Clouds: few clouds at 3000 feet AGL
Text:KBCT 291153Z 00000KT 10SM FEW025 27/24 A3011
Temperature: 27.0°C ( 81°F)
Dewpoint: 24.0°C ( 75°F) [RH = 84%]
Pressure (altimeter):30.11 inches Hg (1019.7 mb)
Winds:calm
Visibility:10 or more sm (16+ km)
Ceiling:at least 12,000 feet AGL
Clouds: few clouds at 2500 feet AGL
Text:KBCT 291053Z 00000KT 10SM SCT025 27/23 A3010
Temperature: 27.0°C ( 81°F)
Dewpoint: 23.0°C ( 73°F) [RH = 79%]
Pressure (altimeter):30.10 inches Hg (1019.4 mb)
Winds:calm
Visibility:10 or more sm (16+ km)
Ceiling:at least 12,000 feet AGL
Clouds: scattered clouds at 2500 feet AGL